createdAt,value
2023-02-04T00:00:02.325Z,103279.63
2023-02-04T00:02:29.891Z,103285.97
2023-02-04T00:04:57.422Z,103277.56
2023-02-04T00:07:25.029Z,103280.00
2023-02-04T00:09:52.623Z,103288.97
2023-02-04T00:12:20.219Z,103286.44
2023-02-04T00:14:47.886Z,103284.81
2023-02-04T00:17:15.481Z,103276.06
2023-02-04T00:19:43.106Z,103288.97
2023-02-04T00:22:10.850Z,103289.84
2023-02-04T00:24:38.918Z,103292.09
2023-02-04T00:27:07.563Z,103284.88
2023-02-04T00:29:35.273Z,103291.97
2023-02-04T00:32:02.897Z,103292.97
2023-02-04T00:34:30.429Z,103290.41
2023-02-04T00:36:58.046Z,103300.97
2023-02-04T00:39:25.618Z,103302.91
2023-02-04T00:41:53.192Z,103303.25
2023-02-04T00:44:20.671Z,103309.25
2023-02-04T00:46:48.857Z,103319.09
2023-02-04T00:49:16.335Z,103310.44
2023-02-04T00:51:46.597Z,103314.41
2023-02-04T00:54:15.932Z,103321.81
2023-02-04T00:56:44.316Z,103331.44
2023-02-04T00:59:12.052Z,103339.84
2023-02-04T01:01:39.978Z,103327.84
2023-02-04T01:04:07.520Z,103334.84
2023-02-04T01:06:35.136Z,103339.69
2023-02-04T01:09:03.363Z,103329.13
2023-02-04T01:11:31.701Z,103334.00
2023-02-04T01:13:59.291Z,103348.88
2023-02-04T01:16:27.263Z,103349.63
2023-02-04T01:18:55.974Z,103344.38
2023-02-04T01:21:25.145Z,103350.47
2023-02-04T01:23:52.773Z,103358.91
2023-02-04T01:26:20.897Z,103358.25
2023-02-04T01:28:48.483Z,103360.72
2023-02-04T01:31:16.322Z,103356.97
2023-02-04T01:33:43.887Z,103371.06
2023-02-04T01:36:11.877Z,103377.19
2023-02-04T01:38:39.538Z,103380.97
2023-02-04T01:41:07.507Z,103381.19
2023-02-04T01:43:35.213Z,103382.19
2023-02-04T01:46:03.552Z,103390.53
2023-02-04T01:48:31.523Z,103388.34
2023-02-04T01:51:04.871Z,103393.81
2023-02-04T01:53:32.710Z,103392.03
2023-02-04T01:56:00.533Z,103392.22
2023-02-04T01:58:29.796Z,103388.44
2023-02-04T02:00:57.385Z,103398.28
2023-02-04T02:03:24.961Z,103392.22
2023-02-04T02:05:53.894Z,103406.03
2023-02-04T02:08:21.497Z,103411.28
2023-02-04T02:10:50.084Z,103411.44
2023-02-04T02:13:18.847Z,103403.00
2023-02-04T02:15:47.057Z,103400.75
2023-02-04T02:18:15.038Z,103408.66
2023-02-04T02:20:44.026Z,103413.34
2023-02-04T02:23:14.463Z,103403.16
2023-02-04T02:25:42.030Z,103418.13
2023-02-04T02:28:12.881Z,103415.81
2023-02-04T02:30:40.723Z,103413.22
2023-02-04T02:33:08.327Z,103411.44
2023-02-04T02:35:36.056Z,103417.81
2023-02-04T02:38:03.567Z,103417.66
2023-02-04T02:40:31.523Z,103419.19
2023-02-04T02:42:59.384Z,103418.97
2023-02-04T02:45:28.462Z,103412.75
2023-02-04T02:47:57.360Z,103418.53
2023-02-04T02:50:27.539Z,103418.41
2023-02-04T02:52:55.429Z,103424.44
2023-02-04T02:55:25.009Z,103427.03
2023-02-04T02:57:53.780Z,103428.59
2023-02-04T03:00:25.062Z,103426.78
2023-02-04T03:03:12.009Z,103422.94
2023-02-04T03:05:42.748Z,103422.09
2023-02-04T03:08:12.276Z,103429.88
2023-02-04T03:10:40.012Z,103424.88
2023-02-04T03:13:07.740Z,103425.31
2023-02-04T03:15:35.608Z,103428.84
2023-02-04T03:18:03.679Z,103417.69
2023-02-04T03:20:32.628Z,103435.56
2023-02-04T03:23:00.565Z,103427.47
2023-02-04T03:25:28.903Z,103424.66
2023-02-04T03:27:58.138Z,103426.19
2023-02-04T03:30:26.376Z,103426.09
2023-02-04T03:32:54.399Z,103431.72
2023-02-04T03:35:22.031Z,103428.13
2023-02-04T03:37:49.696Z,103438.16
2023-02-04T03:40:17.341Z,103439.59
2023-02-04T03:42:44.877Z,103437.97
2023-02-04T03:45:12.388Z,103431.63
2023-02-04T03:47:39.953Z,103444.97
2023-02-04T03:50:07.553Z,103440.91
2023-02-04T03:52:35.082Z,103440.03
2023-02-04T03:55:02.601Z,103440.97
2023-02-04T03:57:30.272Z,103438.03
2023-02-04T03:59:57.789Z,103445.47
2023-02-04T04:02:25.410Z,103450.72
2023-02-04T04:04:52.957Z,103451.72
2023-02-04T04:07:20.509Z,103456.72
2023-02-04T04:09:48.109Z,103458.34
2023-02-04T04:12:15.556Z,103449.16
2023-02-04T04:14:43.062Z,103459.38
2023-02-04T04:17:10.554Z,103458.84
2023-02-04T04:19:38.052Z,103451.91
2023-02-04T04:22:05.552Z,103457.41
2023-02-04T04:24:33.657Z,103455.63
2023-02-04T04:27:01.141Z,103454.81
2023-02-04T04:29:28.765Z,103455.94
2023-02-04T04:31:56.280Z,103457.50
2023-02-04T04:34:23.806Z,103472.19
2023-02-04T04:36:51.307Z,103467.72
2023-02-04T04:39:18.898Z,103451.00
2023-02-04T04:41:46.465Z,103462.56
2023-02-04T04:44:13.969Z,103446.59
2023-02-04T04:46:41.636Z,103450.97
2023-02-04T04:49:09.206Z,103460.66
2023-02-04T04:51:36.726Z,103465.19
2023-02-04T04:54:04.361Z,103468.22
2023-02-04T04:56:31.895Z,103452.63
2023-02-04T04:58:59.461Z,103474.59
2023-02-04T05:01:29.526Z,103466.22
2023-02-04T05:03:57.016Z,103466.38
2023-02-04T05:06:25.485Z,103451.44
2023-02-04T05:08:53.349Z,103477.19
2023-02-04T05:11:21.222Z,103470.47
2023-02-04T05:13:50.255Z,103470.34
2023-02-04T05:16:18.363Z,103470.47
2023-02-04T05:18:46.172Z,103473.06
2023-02-04T05:21:16.646Z,103466.19
2023-02-04T05:23:44.236Z,103472.47
2023-02-04T05:26:15.339Z,103471.56
2023-02-04T05:28:49.687Z,103469.66
2023-02-04T05:31:17.335Z,103475.28
2023-02-04T05:33:44.902Z,103472.44
2023-02-04T05:36:12.418Z,103472.97
2023-02-04T05:38:39.955Z,103486.16
2023-02-04T05:41:07.509Z,103490.28
2023-02-04T05:43:35.245Z,103497.06
2023-02-04T05:46:03.338Z,103502.91
2023-02-04T05:48:30.926Z,103508.44
2023-02-04T05:50:58.722Z,103505.22
2023-02-04T05:53:26.405Z,103506.28
2023-02-04T05:55:53.904Z,103505.53
2023-02-04T05:58:21.418Z,103514.13
2023-02-04T06:00:48.990Z,103514.75
2023-02-04T06:03:19.490Z,103512.97
2023-02-04T06:05:47.114Z,103509.59
2023-02-04T06:08:15.836Z,103511.91
2023-02-04T06:10:43.386Z,103516.63
2023-02-04T06:13:11.025Z,103524.22
2023-02-04T06:15:38.549Z,103523.41
2023-02-04T06:18:06.101Z,103522.44
2023-02-04T06:20:33.903Z,103522.03
2023-02-04T06:23:01.610Z,103531.47
2023-02-04T06:25:29.189Z,103541.44
2023-02-04T06:27:56.965Z,103549.47
2023-02-04T06:30:24.540Z,103551.16
2023-02-04T06:32:52.156Z,103557.31
2023-02-04T06:35:20.091Z,103557.50
2023-02-04T06:37:47.608Z,103562.19
2023-02-04T06:40:15.192Z,103564.75
2023-02-04T06:42:42.734Z,103566.75
2023-02-04T06:45:10.353Z,103576.72
2023-02-04T06:47:37.966Z,103579.94
2023-02-04T06:50:05.637Z,103581.03
2023-02-04T06:52:33.164Z,103574.22
2023-02-04T06:55:00.708Z,103581.53
2023-02-04T06:57:28.304Z,103579.44
2023-02-04T06:59:55.900Z,103580.59
2023-02-04T07:02:23.423Z,103585.91
2023-02-04T07:04:51.223Z,103597.34
2023-02-04T07:07:18.809Z,103590.03
2023-02-04T07:09:46.409Z,103588.97
2023-02-04T07:12:16.132Z,103592.53
2023-02-04T07:14:43.815Z,103591.41
2023-02-04T07:17:11.535Z,103589.13
2023-02-04T07:19:39.066Z,103594.66
2023-02-04T07:22:06.879Z,103592.88
2023-02-04T07:24:34.393Z,103589.41
2023-02-04T07:27:02.729Z,103587.72
2023-02-04T07:29:30.392Z,103596.44
2023-02-04T07:31:58.011Z,103600.00
2023-02-04T07:34:25.651Z,103605.19
2023-02-04T07:36:53.186Z,103602.59
2023-02-04T07:39:20.726Z,103616.41
2023-02-04T07:41:48.274Z,103619.25
2023-02-04T07:44:15.848Z,103619.56
2023-02-04T07:46:43.487Z,103629.59
2023-02-04T07:49:11.078Z,103622.31
2023-02-04T07:51:38.626Z,103623.31
2023-02-04T07:54:06.164Z,103625.44
2023-02-04T07:56:33.731Z,103636.56
2023-02-04T07:59:01.333Z,103634.63
2023-02-04T08:01:28.891Z,103634.63
2023-02-04T08:03:56.460Z,103647.09
2023-02-04T08:06:24.111Z,103644.59
2023-02-04T08:08:51.698Z,103635.47
2023-02-04T08:11:19.317Z,103646.06
2023-02-04T08:13:46.861Z,103647.13
2023-02-04T08:16:14.400Z,103652.47
2023-02-04T08:18:41.892Z,103654.31
2023-02-04T08:21:09.445Z,103660.06
2023-02-04T08:23:41.675Z,103671.06
2023-02-04T08:26:12.968Z,103663.63
2023-02-04T08:28:40.545Z,103669.81
2023-02-04T08:31:11.843Z,103663.13
2023-02-04T08:33:39.929Z,103666.09
2023-02-04T08:36:08.046Z,103670.63
2023-02-04T08:38:35.840Z,103670.38
2023-02-04T08:41:03.810Z,103681.84
2023-02-04T08:43:31.385Z,103679.72
2023-02-04T08:45:58.914Z,103667.88
2023-02-04T08:48:26.456Z,103673.19
2023-02-04T08:50:54.041Z,103679.59
2023-02-04T08:53:21.576Z,103685.06
2023-02-04T08:55:49.187Z,103688.34
2023-02-04T08:58:16.721Z,103686.63
2023-02-04T09:00:44.395Z,103681.81
2023-02-04T09:03:11.955Z,103687.47
2023-02-04T09:05:39.624Z,103687.38
2023-02-04T09:08:07.199Z,103683.59
2023-02-04T09:10:34.905Z,103691.25
2023-02-04T09:13:02.540Z,103695.19
2023-02-04T09:15:30.136Z,103691.75
2023-02-04T09:18:04.835Z,103683.59
2023-02-04T09:20:32.742Z,103691.44
2023-02-04T09:23:00.568Z,103690.56
2023-02-04T09:25:28.211Z,103694.88
2023-02-04T09:27:55.870Z,103694.81
2023-02-04T09:30:23.529Z,103697.22
2023-02-04T09:32:51.453Z,103697.16
2023-02-04T09:35:19.004Z,103661.50
2023-02-04T09:37:46.560Z,103692.25
2023-02-04T09:40:18.156Z,103694.19
2023-02-04T09:42:47.011Z,103688.03
2023-02-04T09:45:40.946Z,103689.28
2023-02-04T09:48:10.290Z,103692.97
2023-02-04T09:50:38.101Z,103693.44
2023-02-04T09:53:06.529Z,103695.94
2023-02-04T09:55:35.748Z,103700.59
2023-02-04T09:58:03.360Z,103709.00
2023-02-04T10:00:32.289Z,103708.25
2023-02-04T10:03:01.769Z,103709.66
2023-02-04T10:05:31.423Z,103704.25
2023-02-04T10:07:59.648Z,103710.53
2023-02-04T10:10:28.447Z,103695.47
2023-02-04T10:12:57.404Z,103712.66
2023-02-04T10:15:24.949Z,103705.06
2023-02-04T10:17:54.609Z,103707.19
2023-02-04T10:20:24.053Z,103713.88
2023-02-04T10:22:53.508Z,103710.72
2023-02-04T10:25:22.637Z,103712.28
2023-02-04T10:27:52.963Z,103709.56
2023-02-04T10:30:25.144Z,103711.53
2023-02-04T10:32:53.104Z,103715.66
2023-02-04T10:35:21.939Z,103715.41
2023-02-04T10:37:49.841Z,103712.66
2023-02-04T10:40:34.488Z,103711.50
2023-02-04T10:43:31.438Z,103699.97
2023-02-04T10:45:59.004Z,103700.97
2023-02-04T10:48:27.982Z,103711.19
2023-02-04T10:50:55.532Z,103710.56
2023-02-04T10:53:41.448Z,103713.88
2023-02-04T10:56:19.089Z,103712.69
2023-02-04T10:58:46.670Z,103708.03
2023-02-04T11:01:15.246Z,103711.38
2023-02-04T11:03:43.584Z,103710.00
2023-02-04T11:06:21.680Z,103709.03
2023-02-04T11:08:50.309Z,103708.56
2023-02-04T11:11:19.642Z,103705.44
2023-02-04T11:13:59.435Z,103700.38
2023-02-04T11:16:28.316Z,103704.81
2023-02-04T11:19:00.026Z,103697.19
2023-02-04T11:21:42.537Z,103695.53
2023-02-04T11:24:13.833Z,103692.44
2023-02-04T11:26:45.285Z,103694.22
2023-02-04T11:29:24.797Z,103697.53
2023-02-04T11:31:52.412Z,103707.59
2023-02-04T11:34:19.978Z,103693.09
2023-02-04T11:37:02.777Z,103694.97
2023-02-04T11:39:34.184Z,103688.72
2023-02-04T11:42:02.030Z,103696.00
2023-02-04T11:44:29.688Z,103687.94
2023-02-04T11:46:58.504Z,103682.25
2023-02-04T11:49:27.661Z,103681.50
2023-02-04T11:52:08.619Z,103686.69
2023-02-04T11:54:36.687Z,103694.75
2023-02-04T11:57:04.467Z,103687.22
2023-02-04T11:59:32.020Z,103686.03
2023-02-04T12:02:06.601Z,103683.03
2023-02-04T12:04:33.992Z,103688.53
2023-02-04T12:07:04.945Z,103684.81
2023-02-04T12:09:32.734Z,103680.47
2023-02-04T12:12:01.350Z,103689.38
2023-02-04T12:14:39.430Z,103691.25
2023-02-04T12:17:20.367Z,103694.97
2023-02-04T12:19:47.765Z,103701.56
2023-02-04T12:22:15.748Z,103700.28
2023-02-04T12:24:44.063Z,103700.34
2023-02-04T12:27:11.513Z,103702.66
2023-02-04T12:29:38.939Z,103705.97
2023-02-04T12:32:06.418Z,103696.69
2023-02-04T12:34:33.871Z,103691.03
2023-02-04T12:37:01.388Z,103693.94
2023-02-04T12:39:29.595Z,103692.41
2023-02-04T12:41:57.057Z,103693.00
2023-02-04T12:44:24.547Z,103663.88
2023-02-04T12:46:52.389Z,103690.59
2023-02-04T12:49:19.953Z,103696.97
2023-02-04T12:51:47.424Z,103697.25
2023-02-04T12:54:14.820Z,103695.44
2023-02-04T12:56:42.254Z,103685.38
2023-02-04T12:59:09.628Z,103687.59
2023-02-04T13:01:37.038Z,103683.28
2023-02-04T13:04:04.638Z,103684.88
2023-02-04T13:06:32.402Z,103682.88
2023-02-04T13:08:59.882Z,103689.91
2023-02-04T13:11:27.356Z,103687.19
2023-02-04T13:13:54.756Z,103681.91
2023-02-04T13:16:24.101Z,103678.22
2023-02-04T13:18:52.078Z,103675.72
2023-02-04T13:21:19.546Z,103683.00
2023-02-04T13:23:47.033Z,103675.91
2023-02-04T13:26:14.576Z,103672.03
2023-02-04T13:28:42.188Z,103668.69
2023-02-04T13:31:09.650Z,103665.72
2023-02-04T13:33:37.078Z,103667.44
2023-02-04T13:36:04.760Z,103670.75
2023-02-04T13:38:32.218Z,103668.41
2023-02-04T13:40:59.611Z,103666.41
2023-02-04T13:43:27.030Z,103680.59
2023-02-04T13:45:54.560Z,103672.84
2023-02-04T13:48:22.056Z,103632.25
2023-02-04T13:50:50.735Z,103662.44
2023-02-04T13:53:18.295Z,103667.84
2023-02-04T13:55:45.770Z,103669.41
2023-02-04T13:58:13.212Z,103663.75
2023-02-04T14:00:40.694Z,103677.59
2023-02-04T14:03:08.111Z,103674.19
2023-02-04T14:05:35.566Z,103684.25
2023-02-04T14:08:02.999Z,103679.03
2023-02-04T14:10:30.790Z,103675.72
2023-02-04T14:12:58.807Z,103668.81
2023-02-04T14:15:26.287Z,103674.91
2023-02-04T14:17:53.727Z,103678.81
2023-02-04T14:20:21.264Z,103680.84
2023-02-04T14:22:48.718Z,103675.38
2023-02-04T14:25:16.141Z,103674.81
2023-02-04T14:27:43.610Z,103678.31
2023-02-04T14:30:16.959Z,103688.91
2023-02-04T14:32:44.394Z,103688.13
2023-02-04T14:35:11.860Z,103690.25
2023-02-04T14:37:39.400Z,103691.28
2023-02-04T14:40:07.793Z,103694.31
2023-02-04T14:42:35.833Z,103691.88
2023-02-04T14:45:05.282Z,103692.66
2023-02-04T14:47:33.778Z,103693.06
2023-02-04T14:50:01.430Z,103697.53
2023-02-04T14:52:29.010Z,103692.06
2023-02-04T14:54:56.902Z,103688.25
2023-02-04T14:57:24.544Z,103700.22
2023-02-04T14:59:52.672Z,103695.69
2023-02-04T15:02:20.657Z,103699.16
2023-02-04T15:04:48.783Z,103700.34
2023-02-04T15:07:16.671Z,103703.63
2023-02-04T15:09:44.701Z,103705.56
2023-02-04T15:12:12.536Z,103706.88
2023-02-04T15:14:40.127Z,103716.19
2023-02-04T15:17:07.704Z,103717.25
2023-02-04T15:19:35.254Z,103702.66
2023-02-04T15:22:03.148Z,103711.53
2023-02-04T15:24:30.837Z,103713.34
2023-02-04T15:26:58.501Z,103721.38
2023-02-04T15:29:26.164Z,103721.94
2023-02-04T15:31:53.826Z,103720.03
2023-02-04T15:34:21.480Z,103724.28
2023-02-04T15:36:49.158Z,103721.31
2023-02-04T15:39:16.839Z,103718.53
2023-02-04T15:41:44.447Z,103703.34
2023-02-04T15:44:12.664Z,103721.38
2023-02-04T15:46:40.222Z,103724.94
2023-02-04T15:49:09.160Z,103720.97
2023-02-04T15:51:36.735Z,103721.22
2023-02-04T15:54:04.469Z,103721.84
2023-02-04T15:56:33.956Z,103712.75
2023-02-04T15:59:02.547Z,103715.88
2023-02-04T16:01:30.148Z,103722.31
2023-02-04T16:03:59.032Z,103719.88
2023-02-04T16:06:26.958Z,103719.81
2023-02-04T16:08:54.652Z,103718.31
2023-02-04T16:11:22.218Z,103728.03
2023-02-04T16:13:49.707Z,103729.13
2023-02-04T16:16:17.361Z,103726.94
2023-02-04T16:18:44.920Z,103728.69
2023-02-04T16:21:12.494Z,103738.25
2023-02-04T16:23:41.064Z,103736.34
2023-02-04T16:26:09.961Z,103737.97
2023-02-04T16:28:37.535Z,103740.09
2023-02-04T16:31:05.344Z,103738.31
2023-02-04T16:33:33.029Z,103749.44
2023-02-04T16:36:08.503Z,103739.66
2023-02-04T16:38:36.735Z,103739.66
2023-02-04T16:41:04.281Z,103750.19
2023-02-04T16:43:31.854Z,103752.13
2023-02-04T16:45:59.463Z,103736.69
2023-02-04T16:48:27.094Z,103741.16
2023-02-04T16:50:54.717Z,103745.34
2023-02-04T16:53:22.380Z,103749.28
2023-02-04T16:55:50.004Z,103753.63
2023-02-04T16:58:18.775Z,103764.19
2023-02-04T17:00:46.406Z,103756.41
2023-02-04T17:03:14.097Z,103758.16
2023-02-04T17:05:41.801Z,103761.44
2023-02-04T17:08:11.101Z,103759.03
2023-02-04T17:10:57.475Z,103760.25
2023-02-04T17:13:25.079Z,103763.75
2023-02-04T17:15:52.614Z,103749.66
2023-02-04T17:18:20.264Z,103771.81
2023-02-04T17:20:47.815Z,103768.25
2023-02-04T17:23:15.325Z,103771.97
2023-02-04T17:25:43.128Z,103772.63
2023-02-04T17:28:10.809Z,103767.75
2023-02-04T17:30:38.434Z,103772.13
2023-02-04T17:33:06.006Z,103770.94
2023-02-04T17:35:33.769Z,103771.69
2023-02-04T17:38:01.615Z,103777.44
2023-02-04T17:40:29.355Z,103783.50
2023-02-04T17:42:56.992Z,103779.22
2023-02-04T17:45:24.752Z,103782.19
2023-02-04T17:47:52.506Z,103780.13
2023-02-04T17:50:20.136Z,103783.50
2023-02-04T17:52:47.664Z,103794.38
2023-02-04T17:55:22.462Z,103790.72
2023-02-04T17:57:50.389Z,103789.25
2023-02-04T18:00:19.945Z,103797.03
2023-02-04T18:02:48.794Z,103790.94
2023-02-04T18:05:21.346Z,103787.53
2023-02-04T18:08:01.202Z,103785.75
2023-02-04T18:10:37.263Z,103780.72
2023-02-04T18:13:14.410Z,103782.34
2023-02-04T18:15:43.102Z,103785.34
2023-02-04T18:18:20.861Z,103782.66
2023-02-04T18:20:48.999Z,103782.81
2023-02-04T18:23:18.077Z,103784.59
2023-02-04T18:25:46.166Z,103778.16
2023-02-04T18:28:18.221Z,103780.81
2023-02-04T18:30:46.210Z,103783.31
2023-02-04T18:33:21.868Z,103790.94
2023-02-04T18:35:51.760Z,103781.84
2023-02-04T18:38:25.762Z,103788.81
2023-02-04T18:40:56.936Z,103784.72
2023-02-04T18:43:29.480Z,103799.06
2023-02-04T18:45:58.360Z,103801.28
2023-02-04T18:48:25.871Z,103800.63
2023-02-04T18:50:54.748Z,103807.69
2023-02-04T18:53:28.025Z,103813.84
2023-02-04T18:55:57.975Z,103806.19
2023-02-04T18:58:40.461Z,103802.19
2023-02-04T19:01:17.024Z,103809.00
2023-02-04T19:03:53.622Z,103800.88
2023-02-04T19:06:27.050Z,103805.44
2023-02-04T19:08:55.880Z,103803.81
2023-02-04T19:11:26.441Z,103796.84
2023-02-04T19:13:55.788Z,103806.91
2023-02-04T19:16:25.107Z,103805.56
2023-02-04T19:18:54.816Z,103809.97
2023-02-04T19:21:25.966Z,103805.50
2023-02-04T19:24:09.779Z,103799.59
2023-02-04T19:26:41.349Z,103804.66
2023-02-04T19:29:38.326Z,103809.84
2023-02-04T19:32:28.929Z,103804.75
2023-02-04T19:34:59.067Z,103806.25
2023-02-04T19:37:39.547Z,103797.66
2023-02-04T19:40:28.397Z,103809.84
2023-02-04T19:42:57.046Z,103805.44
2023-02-04T19:45:26.450Z,103807.91
2023-02-04T19:47:55.124Z,103806.09
2023-02-04T19:50:22.665Z,103796.38
2023-02-04T19:52:52.380Z,103794.59
2023-02-04T19:55:25.495Z,103793.50
2023-02-04T19:57:54.986Z,103798.66
2023-02-04T20:00:23.098Z,103793.78
2023-02-04T20:02:50.672Z,103785.88
2023-02-04T20:05:20.450Z,103772.19
2023-02-04T20:07:48.024Z,103763.84
2023-02-04T20:10:23.834Z,103773.72
2023-02-04T20:12:52.400Z,103770.81
2023-02-04T20:15:21.307Z,103770.19
2023-02-04T20:17:50.166Z,103753.81
2023-02-04T20:20:17.784Z,103780.13
2023-02-04T20:23:11.413Z,103790.91
2023-02-04T20:25:40.370Z,103792.13
2023-02-04T20:28:19.132Z,103797.88
2023-02-04T20:30:46.929Z,103804.00
2023-02-04T20:33:23.575Z,103811.78
2023-02-04T20:35:54.116Z,103806.75
2023-02-04T20:38:21.689Z,103807.59
2023-02-04T20:40:49.274Z,103806.94
2023-02-04T20:43:16.901Z,103801.56
2023-02-04T20:45:50.509Z,103804.66
2023-02-04T20:48:18.065Z,103800.28
2023-02-04T20:50:51.936Z,103800.94
2023-02-04T20:53:23.662Z,103790.56
2023-02-04T20:56:05.366Z,103787.16
2023-02-04T20:58:39.700Z,103793.41
2023-02-04T21:01:25.898Z,103776.78
2023-02-04T21:03:53.449Z,103783.63
2023-02-04T21:06:23.760Z,103787.84
2023-02-04T21:08:52.707Z,103798.19
2023-02-04T21:11:20.272Z,103787.66
2023-02-04T21:13:47.797Z,103788.88
2023-02-04T21:16:15.583Z,103780.84
2023-02-04T21:18:43.140Z,103781.66
2023-02-04T21:21:11.272Z,103773.50
2023-02-04T21:23:38.824Z,103772.13
2023-02-04T21:26:06.760Z,103773.16
2023-02-04T21:28:34.766Z,103781.00
2023-02-04T21:31:03.103Z,103782.78
2023-02-04T21:33:30.775Z,103786.03
2023-02-04T21:35:58.331Z,103781.19
2023-02-04T21:38:25.909Z,103787.09
2023-02-04T21:40:53.433Z,103778.41
2023-02-04T21:43:20.990Z,103784.41
2023-02-04T21:45:48.638Z,103790.72
2023-02-04T21:48:16.313Z,103798.66
2023-02-04T21:50:43.828Z,103794.34
2023-02-04T21:53:11.972Z,103795.91
2023-02-04T21:55:39.582Z,103793.97
2023-02-04T21:58:07.379Z,103795.09
2023-02-04T22:00:35.052Z,103793.50
2023-02-04T22:03:02.663Z,103792.91
2023-02-04T22:05:30.514Z,103791.03
2023-02-04T22:07:59.811Z,103792.19
2023-02-04T22:10:27.615Z,103782.94
2023-02-04T22:12:55.163Z,103796.94
2023-02-04T22:15:24.239Z,103792.19
2023-02-04T22:17:53.168Z,103788.47
2023-02-04T22:20:21.705Z,103787.84
2023-02-04T22:22:50.046Z,103789.44
2023-02-04T22:25:19.352Z,103796.56
2023-02-04T22:27:47.038Z,103797.03
2023-02-04T22:30:15.272Z,103797.03
2023-02-04T22:32:42.873Z,103804.03
2023-02-04T22:35:11.179Z,103806.69
2023-02-04T22:37:39.670Z,103790.22
2023-02-04T22:40:07.649Z,103788.53
2023-02-04T22:42:35.235Z,103799.94
2023-02-04T22:45:03.791Z,103796.69
2023-02-04T22:47:31.956Z,103789.56
2023-02-04T22:49:59.535Z,103793.13
2023-02-04T22:52:27.227Z,103787.94
2023-02-04T22:54:54.708Z,103785.34
2023-02-04T22:57:22.311Z,103774.16
2023-02-04T22:59:49.887Z,103773.19
2023-02-04T23:02:17.541Z,103772.84
2023-02-04T23:04:45.210Z,103765.34
2023-02-04T23:07:13.383Z,103763.78
2023-02-04T23:09:41.101Z,103765.47
2023-02-04T23:12:13.667Z,103770.09
2023-02-04T23:14:42.359Z,103767.94
2023-02-04T23:17:10.424Z,103764.06
2023-02-04T23:19:38.462Z,103761.13
2023-02-04T23:22:06.640Z,103759.78
2023-02-04T23:24:34.571Z,103743.50
2023-02-04T23:27:03.297Z,103743.94
2023-02-04T23:29:32.251Z,103735.19
2023-02-04T23:31:59.857Z,103734.09
2023-02-04T23:34:27.301Z,103748.09
2023-02-04T23:36:54.798Z,103742.81
2023-02-04T23:39:22.298Z,103738.03
2023-02-04T23:41:50.238Z,103727.91
2023-02-04T23:44:17.713Z,103726.81
2023-02-04T23:46:45.407Z,103731.03
2023-02-04T23:49:12.907Z,103735.91
2023-02-04T23:51:40.717Z,103730.72
2023-02-04T23:54:08.295Z,103731.84
2023-02-04T23:56:35.996Z,103719.63
2023-02-04T23:59:04.262Z,103713.53
